Arcturus, Minnesota
Current Conditions -  °F | °C
As of 5:15 PM on Saturday 25 Oct 2014 (Local Time) from KGPZ Reporting Station
Clear Clear  
Wind Chill: 54°   Ceiling: Unl
Heat Index: 54°   Visibility: 10mi
Dew Point: 25°   Wind: 17mph
Humidity: 33%   Direction: 310°NW
Pressure: 29.99"   Gusts: 29mph
Location:  47.3121°N, 93.3823°W
Report Text: KGPZ 252215Z AUTO 31015G25KT 10SM CLR 12/M04 A2999 RMK AO1
Loading
Personal Weather Stations






























Interactive Weather Map New forecast layout! Learn more

10-Day Weather Forecast

Advertisements
Track Severe Weather on mobile